createdAt,value
2023-03-18T00:03:12.798Z,97221.78
2023-03-18T00:07:16.368Z,97224.44
2023-03-18T00:11:23.325Z,97226.13
2023-03-18T00:15:26.972Z,97225.53
2023-03-18T00:19:34.060Z,97240.16
2023-03-18T00:23:38.689Z,97242.63
2023-03-18T00:27:42.181Z,97241.59
2023-03-18T00:31:45.123Z,97252.63
2023-03-18T00:35:50.235Z,97261.41
2023-03-18T00:39:53.117Z,97274.50
2023-03-18T00:43:57.782Z,97279.88
2023-03-18T00:48:00.821Z,97286.16
2023-03-18T00:52:05.658Z,97281.16
2023-03-18T00:56:09.057Z,97284.03
2023-03-18T01:00:13.639Z,97296.28
2023-03-18T01:04:17.778Z,97298.19
2023-03-18T01:08:23.346Z,97317.91
2023-03-18T01:12:26.614Z,97318.84
2023-03-18T01:16:30.913Z,97316.41
2023-03-18T01:20:34.114Z,97330.25
2023-03-18T01:24:39.825Z,97334.56
2023-03-18T01:28:43.344Z,97342.44
2023-03-18T01:32:47.100Z,97344.03
2023-03-18T01:36:50.326Z,97341.44
2023-03-18T01:40:55.156Z,97334.22
2023-03-18T01:45:21.926Z,97322.53
2023-03-18T01:49:29.205Z,97315.81
2023-03-18T01:53:37.513Z,97327.09
2023-03-18T01:57:46.334Z,97336.56
2023-03-18T02:01:54.374Z,97333.34
2023-03-18T02:05:57.711Z,97333.47
2023-03-18T02:10:02.916Z,97346.59
2023-03-18T02:14:12.459Z,97355.19
2023-03-18T02:18:21.019Z,97360.03
2023-03-18T02:22:29.725Z,97359.56
2023-03-18T02:26:50.346Z,97362.06
2023-03-18T02:30:58.989Z,97362.22
2023-03-18T02:35:05.534Z,97367.13
2023-03-18T02:39:09.517Z,97375.28
2023-03-18T02:43:21.837Z,97373.97
2023-03-18T02:47:28.237Z,97368.50
2023-03-18T02:51:31.420Z,97371.09
2023-03-18T02:55:34.677Z,97371.38
2023-03-18T02:59:37.622Z,97385.34
2023-03-18T03:03:43.161Z,97379.66
2023-03-18T03:07:46.719Z,97381.00
2023-03-18T03:11:50.424Z,97379.59
2023-03-18T03:15:54.461Z,97382.72
2023-03-18T03:19:59.790Z,97385.81
2023-03-18T03:24:03.921Z,97397.81
2023-03-18T03:28:08.998Z,97392.59
2023-03-18T03:32:12.097Z,97394.28
2023-03-18T03:36:18.627Z,97397.66
2023-03-18T03:40:22.321Z,97405.31
2023-03-18T03:44:26.365Z,97400.69
2023-03-18T03:48:29.368Z,97411.50
2023-03-18T03:52:34.546Z,97413.97
2023-03-18T03:56:37.697Z,97419.91
2023-03-18T04:00:41.059Z,97429.84
2023-03-18T04:04:45.581Z,97445.56
2023-03-18T04:08:50.361Z,97440.09
2023-03-18T04:12:53.701Z,97445.00
2023-03-18T04:16:58.505Z,97448.22
2023-03-18T04:21:01.882Z,97455.47
2023-03-18T04:25:07.937Z,97451.38
2023-03-18T04:29:10.877Z,97470.00
2023-03-18T04:33:16.326Z,97477.06
2023-03-18T04:37:20.312Z,97470.47
2023-03-18T04:41:26.574Z,97467.22
2023-03-18T04:45:29.614Z,97470.03
2023-03-18T04:49:32.727Z,97465.13
2023-03-18T04:53:35.872Z,97454.63
2023-03-18T04:57:43.167Z,97471.22
2023-03-18T05:01:46.133Z,97476.59
2023-03-18T05:05:49.619Z,97487.91
2023-03-18T05:09:53.094Z,97486.41
2023-03-18T05:13:57.845Z,97489.94
2023-03-18T05:18:01.018Z,97482.00
2023-03-18T05:22:04.406Z,97493.91
2023-03-18T05:26:07.776Z,97491.56
2023-03-18T05:30:22.477Z,97489.22
2023-03-18T05:34:31.483Z,97481.75
2023-03-18T05:38:34.535Z,97488.78
2023-03-18T05:42:54.889Z,97494.72
2023-03-18T05:47:00.450Z,97506.53
2023-03-18T05:51:04.562Z,97502.09
2023-03-18T05:55:08.176Z,97500.47
2023-03-18T05:59:11.693Z,97503.25
2023-03-18T06:03:17.675Z,97512.38
2023-03-18T06:07:21.190Z,97518.81
2023-03-18T06:11:25.040Z,97517.53
2023-03-18T06:15:28.280Z,97518.72
2023-03-18T06:19:34.561Z,97519.63
2023-03-18T06:23:38.001Z,97520.69
2023-03-18T06:27:41.479Z,97512.38
2023-03-18T06:31:44.364Z,97516.88
2023-03-18T06:35:50.960Z,97527.31
2023-03-18T06:39:54.173Z,97526.56
2023-03-18T06:43:57.414Z,97528.19
2023-03-18T06:48:00.935Z,97529.56
2023-03-18T06:52:05.805Z,97528.91
2023-03-18T06:56:09.969Z,97531.72
2023-03-18T07:00:14.716Z,97524.84
2023-03-18T07:04:17.809Z,97530.69
2023-03-18T07:08:23.164Z,97530.13
2023-03-18T07:12:27.076Z,97534.22
2023-03-18T07:16:31.190Z,97540.84
2023-03-18T07:20:34.462Z,97542.69
2023-03-18T07:24:39.600Z,97539.19
2023-03-18T07:28:42.757Z,97552.41
2023-03-18T07:32:46.727Z,97544.97
2023-03-18T07:36:49.973Z,97548.38
2023-03-18T07:40:54.777Z,97539.13
2023-03-18T07:44:58.071Z,97538.41
2023-03-18T07:49:01.633Z,97542.13
2023-03-18T07:53:04.771Z,97539.50
2023-03-18T07:57:10.651Z,97530.59
2023-03-18T08:01:16.519Z,97546.13
2023-03-18T08:05:21.377Z,97544.94
2023-03-18T08:09:24.763Z,97541.59
2023-03-18T08:13:29.720Z,97534.66
2023-03-18T08:17:32.798Z,97540.78
2023-03-18T08:21:36.815Z,97544.25
2023-03-18T08:25:39.827Z,97547.94
2023-03-18T08:29:45.217Z,97542.75
2023-03-18T08:33:49.492Z,97541.28
2023-03-18T08:37:52.729Z,97536.91
2023-03-18T08:41:55.857Z,97547.22
2023-03-18T08:46:01.295Z,97540.00
2023-03-18T08:50:04.320Z,97535.09
2023-03-18T08:54:08.881Z,97537.25
2023-03-18T08:58:12.416Z,97537.97
2023-03-18T09:02:18.827Z,97540.31
2023-03-18T09:06:23.054Z,97534.09
2023-03-18T09:10:26.776Z,97531.88
2023-03-18T09:14:30.253Z,97534.16
2023-03-18T09:18:35.761Z,97534.72
2023-03-18T09:22:39.613Z,97523.78
2023-03-18T09:26:42.808Z,97532.44
2023-03-18T09:30:45.919Z,97522.44
2023-03-18T09:34:50.853Z,97525.38
2023-03-18T09:38:54.251Z,97524.66
2023-03-18T09:43:07.382Z,97517.19
2023-03-18T09:47:41.548Z,97518.03
2023-03-18T09:51:59.399Z,97514.81
2023-03-18T09:56:04.067Z,97518.53
2023-03-18T10:00:18.131Z,97510.59
2023-03-18T10:04:24.965Z,97505.34
2023-03-18T10:08:43.811Z,97502.34
2023-03-18T10:12:53.009Z,97503.44
2023-03-18T10:17:11.522Z,97506.97
2023-03-18T10:21:30.815Z,97508.25
2023-03-18T10:25:39.495Z,97506.72
2023-03-18T10:29:48.546Z,97505.81
2023-03-18T10:33:59.293Z,97495.28
2023-03-18T10:38:06.214Z,97499.00
2023-03-18T10:42:22.240Z,97493.53
2023-03-18T10:46:28.415Z,97482.16
2023-03-18T10:50:37.429Z,97485.63
2023-03-18T10:54:42.678Z,97483.00
2023-03-18T10:58:47.964Z,97488.97
2023-03-18T11:02:51.435Z,97476.09
2023-03-18T11:06:59.472Z,97465.28
2023-03-18T11:11:34.827Z,97462.97
2023-03-18T11:15:50.567Z,97454.69
2023-03-18T11:20:05.903Z,97456.63
2023-03-18T11:24:36.623Z,97459.00
2023-03-18T11:28:43.250Z,97447.78
2023-03-18T11:32:56.679Z,97443.31
2023-03-18T11:37:04.853Z,97440.88
2023-03-18T11:41:10.065Z,97441.78
2023-03-18T11:45:33.056Z,97441.09
2023-03-18T11:49:38.843Z,97431.25
2023-03-18T11:53:53.786Z,97426.66
2023-03-18T11:58:24.382Z,97410.78
2023-03-18T12:02:45.363Z,97412.72
2023-03-18T12:07:06.055Z,97407.22
2023-03-18T12:11:14.842Z,97397.66
2023-03-18T12:15:27.561Z,97407.16
2023-03-18T12:19:38.136Z,97400.19
2023-03-18T12:24:05.958Z,97391.81
2023-03-18T12:28:23.944Z,97390.34
2023-03-18T12:32:33.709Z,97383.56
2023-03-18T12:36:50.267Z,97387.56
2023-03-18T12:41:07.994Z,97383.81
2023-03-18T12:45:14.838Z,97381.88
2023-03-18T12:49:22.699Z,97376.88
2023-03-18T12:53:31.288Z,97371.88
2023-03-18T12:57:43.286Z,97374.59
2023-03-18T13:01:54.791Z,97373.31
2023-03-18T13:06:02.441Z,97370.97
2023-03-18T13:10:19.849Z,97371.63
2023-03-18T13:14:33.470Z,97368.00
2023-03-18T13:18:43.682Z,97356.38
2023-03-18T13:23:14.406Z,97371.84
2023-03-18T13:27:53.262Z,97365.41
2023-03-18T13:32:09.589Z,97368.00
2023-03-18T13:36:23.787Z,97353.53
2023-03-18T13:40:42.971Z,97352.19
2023-03-18T13:44:53.115Z,97350.25
2023-03-18T13:49:00.121Z,97346.22
2023-03-18T13:53:04.952Z,97340.53
2023-03-18T13:57:36.920Z,97343.94
2023-03-18T14:01:49.727Z,97344.75
2023-03-18T14:06:23.705Z,97340.53
2023-03-18T14:10:26.732Z,97325.69
2023-03-18T14:14:57.246Z,97316.75
2023-03-18T14:19:04.112Z,97308.66
2023-03-18T14:23:44.697Z,97298.66
2023-03-18T14:27:52.572Z,97300.56
2023-03-18T14:31:59.726Z,97292.06
2023-03-18T14:36:09.791Z,97294.16
2023-03-18T14:40:18.179Z,97289.81
2023-03-18T14:44:29.183Z,97279.41
2023-03-18T14:48:35.077Z,97280.41
2023-03-18T14:52:41.946Z,97272.91
2023-03-18T14:56:54.935Z,97261.88
2023-03-18T15:01:06.521Z,97265.19
2023-03-18T15:05:15.426Z,97261.53
2023-03-18T15:09:23.598Z,97258.19
2023-03-18T15:13:27.713Z,97255.16
2023-03-18T15:17:32.472Z,97246.09
2023-03-18T15:21:36.794Z,97247.31
2023-03-18T15:25:43.220Z,97249.25
2023-03-18T15:29:50.234Z,97243.97
2023-03-18T15:34:06.732Z,97251.38
2023-03-18T15:38:19.030Z,97250.53
2023-03-18T15:42:23.082Z,97247.19
2023-03-18T15:46:28.972Z,97249.72
2023-03-18T15:50:35.075Z,97249.13
2023-03-18T15:54:42.302Z,97252.16
2023-03-18T15:58:47.816Z,97257.53
2023-03-18T16:02:51.347Z,97259.41
2023-03-18T16:06:56.304Z,97261.31
2023-03-18T16:11:04.493Z,97268.63
2023-03-18T16:15:10.344Z,97264.91
2023-03-18T16:19:25.158Z,97266.50
2023-03-18T16:23:30.487Z,97274.19
2023-03-18T16:27:38.822Z,97279.03
2023-03-18T16:31:42.121Z,97272.69
2023-03-18T16:35:47.285Z,97285.31
2023-03-18T16:39:52.145Z,97275.94
2023-03-18T16:43:56.168Z,97280.25
2023-03-18T16:48:02.463Z,97293.81
2023-03-18T16:52:06.134Z,97301.50
2023-03-18T16:56:17.793Z,97306.69
2023-03-18T17:00:24.616Z,97305.19
2023-03-18T17:04:30.909Z,97306.69
2023-03-18T17:08:34.316Z,97310.94
2023-03-18T17:12:40.403Z,97302.63
2023-03-18T17:16:43.924Z,97299.91
2023-03-18T17:20:48.179Z,97304.19
2023-03-18T17:24:51.272Z,97309.72
2023-03-18T17:28:56.703Z,97313.16
2023-03-18T17:32:59.932Z,97317.06
2023-03-18T17:37:04.442Z,97324.09
2023-03-18T17:41:16.073Z,97331.78
2023-03-18T17:45:29.677Z,97329.31
2023-03-18T17:49:51.515Z,97328.88
2023-03-18T17:53:58.986Z,97330.84
2023-03-18T17:58:02.530Z,97330.91
2023-03-18T18:02:13.514Z,97328.03
2023-03-18T18:06:19.369Z,97335.41
2023-03-18T18:10:22.320Z,97329.72
2023-03-18T18:14:31.734Z,97330.84
2023-03-18T18:18:38.687Z,97325.16
2023-03-18T18:22:46.714Z,97333.38
2023-03-18T18:26:49.838Z,97336.72
2023-03-18T18:30:53.188Z,97316.31
2023-03-18T18:34:58.010Z,97340.78
2023-03-18T18:39:02.251Z,97344.06
2023-03-18T18:43:05.762Z,97347.50
2023-03-18T18:47:18.945Z,97346.00
2023-03-18T18:51:25.434Z,97346.31
2023-03-18T18:55:28.824Z,97351.81
2023-03-18T18:59:34.266Z,97341.13
2023-03-18T19:03:37.889Z,97334.91
2023-03-18T19:07:42.828Z,97321.50
2023-03-18T19:11:46.647Z,97338.91
2023-03-18T19:15:51.392Z,97342.59
2023-03-18T19:19:55.249Z,97345.66
2023-03-18T19:24:02.332Z,97342.53
2023-03-18T19:28:06.537Z,97346.59
2023-03-18T19:32:15.886Z,97331.72
2023-03-18T19:36:26.660Z,97332.38
2023-03-18T19:40:32.107Z,97329.78
2023-03-18T19:44:36.026Z,97327.69
2023-03-18T19:48:39.248Z,97322.34
2023-03-18T19:52:42.841Z,97329.81
2023-03-18T19:56:48.690Z,97329.59
2023-03-18T20:00:53.843Z,97334.88
2023-03-18T20:04:59.664Z,97332.53
2023-03-18T20:09:03.066Z,97329.22
2023-03-18T20:13:08.387Z,97333.19
2023-03-18T20:17:38.678Z,97342.53
2023-03-18T20:21:42.312Z,97343.41
2023-03-18T20:25:47.593Z,97345.91
2023-03-18T20:29:52.537Z,97352.63
2023-03-18T20:33:56.059Z,97352.50
2023-03-18T20:38:02.025Z,97346.13
2023-03-18T20:42:05.666Z,97347.47
2023-03-18T20:46:14.200Z,97352.81
2023-03-18T20:50:19.613Z,97369.44
2023-03-18T20:54:30.543Z,97355.75
2023-03-18T20:58:33.974Z,97353.28
2023-03-18T21:02:39.220Z,97349.88
2023-03-18T21:06:43.474Z,97348.09
2023-03-18T21:10:47.547Z,97351.03
2023-03-18T21:14:50.666Z,97361.75
2023-03-18T21:18:55.425Z,97359.16
2023-03-18T21:22:58.324Z,97367.91
2023-03-18T21:27:05.065Z,97374.75
2023-03-18T21:31:22.609Z,97375.38
2023-03-18T21:35:29.491Z,97366.63
2023-03-18T21:39:33.695Z,97363.19
2023-03-18T21:43:38.717Z,97358.81
2023-03-18T21:47:42.273Z,97352.97
2023-03-18T21:51:47.247Z,97342.88
2023-03-18T21:55:53.217Z,97341.75
2023-03-18T21:59:59.225Z,97333.94
2023-03-18T22:04:02.921Z,97326.94
2023-03-18T22:08:07.798Z,97326.09
2023-03-18T22:12:14.485Z,97324.28
2023-03-18T22:16:19.545Z,97324.44
2023-03-18T22:20:23.358Z,97322.63
2023-03-18T22:24:27.977Z,97323.25
2023-03-18T22:28:32.512Z,97336.53
2023-03-18T22:32:40.786Z,97330.03
2023-03-18T22:36:43.794Z,97331.59
2023-03-18T22:40:50.540Z,97344.53
2023-03-18T22:44:53.730Z,97339.31
2023-03-18T22:49:00.189Z,97340.22
2023-03-18T22:53:06.662Z,97328.06
2023-03-18T22:57:18.132Z,97349.28
2023-03-18T23:01:24.870Z,97353.78
2023-03-18T23:05:28.148Z,97352.81
2023-03-18T23:09:31.784Z,97357.84
2023-03-18T23:13:38.788Z,97355.09
2023-03-18T23:17:42.606Z,97368.09
2023-03-18T23:21:46.073Z,97363.19
2023-03-18T23:25:50.174Z,97358.97
2023-03-18T23:29:55.676Z,97349.88
2023-03-18T23:33:58.621Z,97354.06
2023-03-18T23:38:02.311Z,97357.25
2023-03-18T23:42:06.321Z,97351.34
2023-03-18T23:46:11.371Z,97343.81
2023-03-18T23:50:14.530Z,97345.84
2023-03-18T23:54:17.837Z,97350.78
2023-03-18T23:58:20.948Z,97354.00
